sensor_id;sensor_type;location;lat;lon;timestamp;temperature;humidity
32446;DHT22;18899;50.748;7.102;2023-03-23T00:00:53;14.40;99.90
32446;DHT22;18899;50.748;7.102;2023-03-23T00:03:20;14.50;99.90
32446;DHT22;18899;50.748;7.102;2023-03-23T00:05:47;14.40;99.90
32446;DHT22;18899;50.748;7.102;2023-03-23T00:08:19;14.50;99.90
32446;DHT22;18899;50.748;7.102;2023-03-23T00:10:51;14.40;99.90
32446;DHT22;18899;50.748;7.102;2023-03-23T00:13:24;14.40;99.90
32446;DHT22;18899;50.748;7.102;2023-03-23T00:15:50;14.40;99.90
32446;DHT22;18899;50.748;7.102;2023-03-23T00:18:17;14.50;99.90
32446;DHT22;18899;50.748;7.102;2023-03-23T00:20:51;14.60;99.90
32446;DHT22;18899;50.748;7.102;2023-03-23T00:23:18;14.50;99.90
32446;DHT22;18899;50.748;7.102;2023-03-23T00:25:49;14.40;99.90
32446;DHT22;18899;50.748;7.102;2023-03-23T00:28:15;14.40;99.90
32446;DHT22;18899;50.748;7.102;2023-03-23T00:30:41;14.50;99.90
32446;DHT22;18899;50.748;7.102;2023-03-23T00:33:08;14.50;99.90
32446;DHT22;18899;50.748;7.102;2023-03-23T00:35:34;14.50;99.90
32446;DHT22;18899;50.748;7.102;2023-03-23T00:38:01;14.40;99.90
32446;DHT22;18899;50.748;7.102;2023-03-23T00:40:27;14.40;99.90
32446;DHT22;18899;50.748;7.102;2023-03-23T00:42:53;14.40;99.90
32446;DHT22;18899;50.748;7.102;2023-03-23T00:45:18;14.40;99.90
32446;DHT22;18899;50.748;7.102;2023-03-23T00:47:44;14.40;99.90
32446;DHT22;18899;50.748;7.102;2023-03-23T00:50:12;14.30;99.90
32446;DHT22;18899;50.748;7.102;2023-03-23T00:52:39;14.30;99.90
32446;DHT22;18899;50.748;7.102;2023-03-23T00:55:06;14.40;99.90
32446;DHT22;18899;50.748;7.102;2023-03-23T00:57:32;14.40;99.90
32446;DHT22;18899;50.748;7.102;2023-03-23T00:59:57;14.40;99.90
32446;DHT22;18899;50.748;7.102;2023-03-23T01:02:23;14.40;99.90
32446;DHT22;18899;50.748;7.102;2023-03-23T01:04:50;14.30;99.90
32446;DHT22;18899;50.748;7.102;2023-03-23T01:07:18;14.30;99.90
32446;DHT22;18899;50.748;7.102;2023-03-23T01:09:44;14.40;99.90
32446;DHT22;18899;50.748;7.102;2023-03-23T01:12:12;14.40;99.90
32446;DHT22;18899;50.748;7.102;2023-03-23T01:14:37;14.40;99.90
32446;DHT22;18899;50.748;7.102;2023-03-23T01:17:03;14.30;99.90
32446;DHT22;18899;50.748;7.102;2023-03-23T01:19:29;14.30;99.90
32446;DHT22;18899;50.748;7.102;2023-03-23T01:21:55;14.40;99.90
32446;DHT22;18899;50.748;7.102;2023-03-23T01:24:20;14.30;99.90
32446;DHT22;18899;50.748;7.102;2023-03-23T01:26:46;14.30;99.90
32446;DHT22;18899;50.748;7.102;2023-03-23T01:29:11;14.30;99.90
32446;DHT22;18899;50.748;7.102;2023-03-23T01:31:37;14.30;99.90
32446;DHT22;18899;50.748;7.102;2023-03-23T01:34:03;14.30;99.90
32446;DHT22;18899;50.748;7.102;2023-03-23T01:36:29;14.30;99.90
32446;DHT22;18899;50.748;7.102;2023-03-23T01:38:58;14.30;99.90
32446;DHT22;18899;50.748;7.102;2023-03-23T01:41:24;14.30;99.90
32446;DHT22;18899;50.748;7.102;2023-03-23T01:44:03;14.30;99.90
32446;DHT22;18899;50.748;7.102;2023-03-23T01:46:31;14.20;99.90
32446;DHT22;18899;50.748;7.102;2023-03-23T01:49:02;14.10;99.90
32446;DHT22;18899;50.748;7.102;2023-03-23T01:51:33;14.20;99.90
32446;DHT22;18899;50.748;7.102;2023-03-23T01:54:02;14.20;99.90
32446;DHT22;18899;50.748;7.102;2023-03-23T01:56:34;14.30;99.90
32446;DHT22;18899;50.748;7.102;2023-03-23T01:59:03;14.30;99.90
32446;DHT22;18899;50.748;7.102;2023-03-23T02:01:29;14.20;99.90
32446;DHT22;18899;50.748;7.102;2023-03-23T02:03:56;14.20;99.90
32446;DHT22;18899;50.748;7.102;2023-03-23T02:06:23;14.10;99.90
32446;DHT22;18899;50.748;7.102;2023-03-23T02:08:50;14.10;99.90
32446;DHT22;18899;50.748;7.102;2023-03-23T02:11:19;14.10;99.90
32446;DHT22;18899;50.748;7.102;2023-03-23T02:13:45;14.00;99.90
32446;DHT22;18899;50.748;7.102;2023-03-23T02:16:14;13.90;99.90
32446;DHT22;18899;50.748;7.102;2023-03-23T02:27:07;13.90;99.90
32446;DHT22;18899;50.748;7.102;2023-03-23T02:33:13;13.80;99.90
32446;DHT22;18899;50.748;7.102;2023-03-23T02:35:54;13.90;99.90
32446;DHT22;18899;50.748;7.102;2023-03-23T02:38:35;13.90;99.90
32446;DHT22;18899;50.748;7.102;2023-03-23T02:41:03;13.90;99.90
32446;DHT22;18899;50.748;7.102;2023-03-23T02:43:33;13.90;99.90
32446;DHT22;18899;50.748;7.102;2023-03-23T02:46:01;13.90;99.90
32446;DHT22;18899;50.748;7.102;2023-03-23T02:48:31;13.80;99.90
32446;DHT22;18899;50.748;7.102;2023-03-23T02:50:58;13.90;99.90
32446;DHT22;18899;50.748;7.102;2023-03-23T02:53:26;13.90;99.90
32446;DHT22;18899;50.748;7.102;2023-03-23T02:55:54;13.70;99.90
32446;DHT22;18899;50.748;7.102;2023-03-23T02:58:21;13.50;99.90
32446;DHT22;18899;50.748;7.102;2023-03-23T03:00:51;13.30;99.90
32446;DHT22;18899;50.748;7.102;2023-03-23T03:03:20;13.30;99.90
32446;DHT22;18899;50.748;7.102;2023-03-23T03:08:52;13.20;99.90
32446;DHT22;18899;50.748;7.102;2023-03-23T03:11:19;13.30;99.90
32446;DHT22;18899;50.748;7.102;2023-03-23T03:14:07;13.20;99.90
32446;DHT22;18899;50.748;7.102;2023-03-23T03:22:04;13.30;99.90
32446;DHT22;18899;50.748;7.102;2023-03-23T03:24:31;13.30;99.90
32446;DHT22;18899;50.748;7.102;2023-03-23T03:26:59;13.20;99.90
32446;DHT22;18899;50.748;7.102;2023-03-23T03:29:33;13.20;99.90
32446;DHT22;18899;50.748;7.102;2023-03-23T03:32:01;13.20;99.90
32446;DHT22;18899;50.748;7.102;2023-03-23T03:34:29;13.20;99.90
32446;DHT22;18899;50.748;7.102;2023-03-23T03:36:57;13.20;99.90
32446;DHT22;18899;50.748;7.102;2023-03-23T03:39:24;13.10;99.90
32446;DHT22;18899;50.748;7.102;2023-03-23T03:41:49;12.90;99.90
32446;DHT22;18899;50.748;7.102;2023-03-23T03:44:15;12.90;99.90
32446;DHT22;18899;50.748;7.102;2023-03-23T03:46:41;12.80;99.90
32446;DHT22;18899;50.748;7.102;2023-03-23T03:49:08;12.80;99.90
32446;DHT22;18899;50.748;7.102;2023-03-23T03:51:34;12.90;99.90
32446;DHT22;18899;50.748;7.102;2023-03-23T03:54:01;12.90;99.90
32446;DHT22;18899;50.748;7.102;2023-03-23T03:56:27;13.00;99.90
32446;DHT22;18899;50.748;7.102;2023-03-23T03:58:53;13.00;99.90
32446;DHT22;18899;50.748;7.102;2023-03-23T04:01:20;13.00;99.90
32446;DHT22;18899;50.748;7.102;2023-03-23T04:03:50;13.00;99.90
32446;DHT22;18899;50.748;7.102;2023-03-23T04:06:16;13.10;99.90
32446;DHT22;18899;50.748;7.102;2023-03-23T04:08:42;13.10;99.90
32446;DHT22;18899;50.748;7.102;2023-03-23T04:11:11;13.20;99.90
32446;DHT22;18899;50.748;7.102;2023-03-23T04:13:37;13.30;99.90
32446;DHT22;18899;50.748;7.102;2023-03-23T04:16:04;13.40;99.90
32446;DHT22;18899;50.748;7.102;2023-03-23T04:18:30;13.30;99.90
32446;DHT22;18899;50.748;7.102;2023-03-23T04:20:58;13.40;99.90
32446;DHT22;18899;50.748;7.102;2023-03-23T04:23:26;13.30;99.90
32446;DHT22;18899;50.748;7.102;2023-03-23T04:25:52;13.30;99.90
32446;DHT22;18899;50.748;7.102;2023-03-23T04:28:23;13.20;99.90
32446;DHT22;18899;50.748;7.102;2023-03-23T04:30:50;13.30;99.90
32446;DHT22;18899;50.748;7.102;2023-03-23T04:33:24;13.30;99.90
32446;DHT22;18899;50.748;7.102;2023-03-23T04:35:52;13.20;99.90
32446;DHT22;18899;50.748;7.102;2023-03-23T04:38:19;13.20;99.90
32446;DHT22;18899;50.748;7.102;2023-03-23T04:40:46;13.10;99.90
32446;DHT22;18899;50.748;7.102;2023-03-23T04:43:12;13.10;99.90
32446;DHT22;18899;50.748;7.102;2023-03-23T04:45:40;13.10;99.90
32446;DHT22;18899;50.748;7.102;2023-03-23T04:48:10;13.20;99.90
32446;DHT22;18899;50.748;7.102;2023-03-23T04:50:36;13.00;99.90
32446;DHT22;18899;50.748;7.102;2023-03-23T04:53:03;13.00;99.90
32446;DHT22;18899;50.748;7.102;2023-03-23T04:55:30;13.10;99.90
32446;DHT22;18899;50.748;7.102;2023-03-23T04:57:57;13.10;99.90
32446;DHT22;18899;50.748;7.102;2023-03-23T05:00:25;13.10;99.90
32446;DHT22;18899;50.748;7.102;2023-03-23T05:02:51;13.10;99.90
32446;DHT22;18899;50.748;7.102;2023-03-23T05:05:18;12.90;99.90
32446;DHT22;18899;50.748;7.102;2023-03-23T05:07:44;12.90;99.90
32446;DHT22;18899;50.748;7.102;2023-03-23T05:10:12;13.00;99.90
32446;DHT22;18899;50.748;7.102;2023-03-23T05:12:38;13.00;99.90
32446;DHT22;18899;50.748;7.102;2023-03-23T05:15:05;13.00;99.90
32446;DHT22;18899;50.748;7.102;2023-03-23T05:17:32;13.00;99.90
32446;DHT22;18899;50.748;7.102;2023-03-23T05:19:58;13.00;99.90
32446;DHT22;18899;50.748;7.102;2023-03-23T05:22:26;13.00;99.90
32446;DHT22;18899;50.748;7.102;2023-03-23T05:24:52;12.90;99.90
32446;DHT22;18899;50.748;7.102;2023-03-23T05:27:19;12.90;99.90
32446;DHT22;18899;50.748;7.102;2023-03-23T05:29:45;12.90;99.90
32446;DHT22;18899;50.748;7.102;2023-03-23T05:32:14;12.80;99.90
32446;DHT22;18899;50.748;7.102;2023-03-23T05:34:40;12.90;99.90
32446;DHT22;18899;50.748;7.102;2023-03-23T05:37:05;12.80;99.90
32446;DHT22;18899;50.748;7.102;2023-03-23T05:39:31;12.70;99.90
32446;DHT22;18899;50.748;7.102;2023-03-23T05:41:58;12.80;99.90
32446;DHT22;18899;50.748;7.102;2023-03-23T05:44:23;12.80;99.90
32446;DHT22;18899;50.748;7.102;2023-03-23T05:46:49;12.80;99.90
32446;DHT22;18899;50.748;7.102;2023-03-23T05:49:15;12.80;99.90
32446;DHT22;18899;50.748;7.102;2023-03-23T05:51:42;12.80;99.90
32446;DHT22;18899;50.748;7.102;2023-03-23T05:54:08;12.90;99.90
32446;DHT22;18899;50.748;7.102;2023-03-23T05:56:35;13.00;99.90
32446;DHT22;18899;50.748;7.102;2023-03-23T05:59:01;13.00;99.90
32446;DHT22;18899;50.748;7.102;2023-03-23T06:01:28;12.90;99.90
32446;DHT22;18899;50.748;7.102;2023-03-23T06:03:53;13.00;99.90
32446;DHT22;18899;50.748;7.102;2023-03-23T06:06:27;13.10;99.90
32446;DHT22;18899;50.748;7.102;2023-03-23T06:08:55;13.20;99.90
32446;DHT22;18899;50.748;7.102;2023-03-23T06:11:20;13.30;99.90
32446;DHT22;18899;50.748;7.102;2023-03-23T06:13:47;13.30;99.90
32446;DHT22;18899;50.748;7.102;2023-03-23T06:16:13;13.30;99.90
32446;DHT22;18899;50.748;7.102;2023-03-23T06:18:39;13.30;99.90
32446;DHT22;18899;50.748;7.102;2023-03-23T06:21:07;13.40;99.90
32446;DHT22;18899;50.748;7.102;2023-03-23T06:23:34;13.40;99.90
32446;DHT22;18899;50.748;7.102;2023-03-23T06:26:02;13.50;99.90
32446;DHT22;18899;50.748;7.102;2023-03-23T06:28:29;13.50;99.90
32446;DHT22;18899;50.748;7.102;2023-03-23T06:30:54;13.60;99.90
32446;DHT22;18899;50.748;7.102;2023-03-23T06:33:20;13.70;99.90
32446;DHT22;18899;50.748;7.102;2023-03-23T06:35:46;13.70;99.90
32446;DHT22;18899;50.748;7.102;2023-03-23T06:38:12;13.80;99.90
32446;DHT22;18899;50.748;7.102;2023-03-23T06:40:38;13.80;99.90
32446;DHT22;18899;50.748;7.102;2023-03-23T06:43:03;13.90;99.90
32446;DHT22;18899;50.748;7.102;2023-03-23T06:45:30;14.00;99.90
32446;DHT22;18899;50.748;7.102;2023-03-23T06:47:56;14.20;99.90
32446;DHT22;18899;50.748;7.102;2023-03-23T06:50:22;14.20;99.90
32446;DHT22;18899;50.748;7.102;2023-03-23T06:52:50;14.20;99.90
32446;DHT22;18899;50.748;7.102;2023-03-23T06:55:16;14.20;99.90
32446;DHT22;18899;50.748;7.102;2023-03-23T06:57:43;14.20;99.90
32446;DHT22;18899;50.748;7.102;2023-03-23T07:00:09;14.20;99.90
32446;DHT22;18899;50.748;7.102;2023-03-23T07:02:38;14.30;99.90
32446;DHT22;18899;50.748;7.102;2023-03-23T07:05:04;14.30;99.90
32446;DHT22;18899;50.748;7.102;2023-03-23T07:07:30;14.30;99.90
32446;DHT22;18899;50.748;7.102;2023-03-23T07:09:55;14.30;99.90
32446;DHT22;18899;50.748;7.102;2023-03-23T07:12:21;14.30;99.90
32446;DHT22;18899;50.748;7.102;2023-03-23T07:14:47;14.40;99.90
32446;DHT22;18899;50.748;7.102;2023-03-23T07:17:13;14.40;99.90
32446;DHT22;18899;50.748;7.102;2023-03-23T07:19:39;14.40;99.90
32446;DHT22;18899;50.748;7.102;2023-03-23T07:22:06;14.40;99.90
32446;DHT22;18899;50.748;7.102;2023-03-23T07:24:32;14.50;99.90
32446;DHT22;18899;50.748;7.102;2023-03-23T07:26:58;14.50;99.90
32446;DHT22;18899;50.748;7.102;2023-03-23T07:29:23;14.60;99.90
32446;DHT22;18899;50.748;7.102;2023-03-23T07:31:49;14.70;99.90
32446;DHT22;18899;50.748;7.102;2023-03-23T07:34:14;14.70;99.90
32446;DHT22;18899;50.748;7.102;2023-03-23T07:36:40;14.80;99.90
32446;DHT22;18899;50.748;7.102;2023-03-23T07:39:06;14.80;99.90
32446;DHT22;18899;50.748;7.102;2023-03-23T07:41:32;14.80;99.90
32446;DHT22;18899;50.748;7.102;2023-03-23T07:43:58;14.80;99.90
32446;DHT22;18899;50.748;7.102;2023-03-23T07:46:24;14.70;99.90
32446;DHT22;18899;50.748;7.102;2023-03-23T07:48:49;14.80;99.90
32446;DHT22;18899;50.748;7.102;2023-03-23T07:51:15;14.90;99.90
32446;DHT22;18899;50.748;7.102;2023-03-23T07:53:44;14.90;99.90
32446;DHT22;18899;50.748;7.102;2023-03-23T07:56:11;15.00;99.90
32446;DHT22;18899;50.748;7.102;2023-03-23T07:58:37;15.10;99.90
32446;DHT22;18899;50.748;7.102;2023-03-23T08:01:03;15.00;99.90
32446;DHT22;18899;50.748;7.102;2023-03-23T08:03:29;15.10;99.90
32446;DHT22;18899;50.748;7.102;2023-03-23T08:06:04;15.20;99.90
32446;DHT22;18899;50.748;7.102;2023-03-23T08:08:31;15.40;99.90
32446;DHT22;18899;50.748;7.102;2023-03-23T08:10:57;15.50;99.90
32446;DHT22;18899;50.748;7.102;2023-03-23T08:13:23;15.50;99.90
32446;DHT22;18899;50.748;7.102;2023-03-23T08:15:49;15.60;99.90
32446;DHT22;18899;50.748;7.102;2023-03-23T08:18:15;15.70;99.90
32446;DHT22;18899;50.748;7.102;2023-03-23T08:20:41;15.80;99.90
32446;DHT22;18899;50.748;7.102;2023-03-23T08:23:07;15.70;99.90
32446;DHT22;18899;50.748;7.102;2023-03-23T08:25:33;15.60;99.90
32446;DHT22;18899;50.748;7.102;2023-03-23T08:28:00;15.70;99.90
32446;DHT22;18899;50.748;7.102;2023-03-23T08:30:28;15.70;99.90
32446;DHT22;18899;50.748;7.102;2023-03-23T08:32:56;15.70;99.90
32446;DHT22;18899;50.748;7.102;2023-03-23T08:35:22;15.80;99.90
32446;DHT22;18899;50.748;7.102;2023-03-23T08:37:47;15.80;99.90
32446;DHT22;18899;50.748;7.102;2023-03-23T08:40:19;15.70;99.90
32446;DHT22;18899;50.748;7.102;2023-03-23T08:42:46;15.70;99.90
32446;DHT22;18899;50.748;7.102;2023-03-23T08:45:16;15.70;99.90
32446;DHT22;18899;50.748;7.102;2023-03-23T08:47:42;15.80;99.90
32446;DHT22;18899;50.748;7.102;2023-03-23T08:50:11;15.80;99.90
32446;DHT22;18899;50.748;7.102;2023-03-23T08:52:37;15.70;99.90
32446;DHT22;18899;50.748;7.102;2023-03-23T08:55:04;15.60;99.90
32446;DHT22;18899;50.748;7.102;2023-03-23T08:57:30;15.50;99.90
32446;DHT22;18899;50.748;7.102;2023-03-23T08:59:56;15.60;99.90
32446;DHT22;18899;50.748;7.102;2023-03-23T09:02:26;15.80;99.90
32446;DHT22;18899;50.748;7.102;2023-03-23T09:04:53;15.80;99.90
32446;DHT22;18899;50.748;7.102;2023-03-23T09:07:19;15.90;99.90
32446;DHT22;18899;50.748;7.102;2023-03-23T09:09:45;16.00;99.90
32446;DHT22;18899;50.748;7.102;2023-03-23T09:12:11;16.00;99.90
32446;DHT22;18899;50.748;7.102;2023-03-23T09:14:37;16.00;99.90
32446;DHT22;18899;50.748;7.102;2023-03-23T09:17:04;15.90;99.90
32446;DHT22;18899;50.748;7.102;2023-03-23T09:19:31;15.70;99.90
32446;DHT22;18899;50.748;7.102;2023-03-23T09:21:58;15.80;99.90
32446;DHT22;18899;50.748;7.102;2023-03-23T09:24:24;15.80;99.90
32446;DHT22;18899;50.748;7.102;2023-03-23T09:26:50;15.80;99.90
32446;DHT22;18899;50.748;7.102;2023-03-23T09:29:16;15.90;99.90
32446;DHT22;18899;50.748;7.102;2023-03-23T09:31:42;16.00;99.90
32446;DHT22;18899;50.748;7.102;2023-03-23T09:34:08;15.80;99.90
32446;DHT22;18899;50.748;7.102;2023-03-23T09:36:37;15.80;99.90
32446;DHT22;18899;50.748;7.102;2023-03-23T09:39:04;16.00;99.90
32446;DHT22;18899;50.748;7.102;2023-03-23T09:42:11;16.10;99.90
32446;DHT22;18899;50.748;7.102;2023-03-23T09:44:54;16.10;99.90
32446;DHT22;18899;50.748;7.102;2023-03-23T09:47:38;16.30;99.90
32446;DHT22;18899;50.748;7.102;2023-03-23T09:50:37;16.40;99.90
32446;DHT22;18899;50.748;7.102;2023-03-23T09:53:23;16.40;99.90
32446;DHT22;18899;50.748;7.102;2023-03-23T09:55:49;16.60;99.90
32446;DHT22;18899;50.748;7.102;2023-03-23T09:58:27;16.70;99.90
32446;DHT22;18899;50.748;7.102;2023-03-23T10:01:20;16.50;99.90
32446;DHT22;18899;50.748;7.102;2023-03-23T10:03:47;16.50;99.90
32446;DHT22;18899;50.748;7.102;2023-03-23T10:06:16;16.50;99.90
32446;DHT22;18899;50.748;7.102;2023-03-23T10:08:52;16.50;99.90
32446;DHT22;18899;50.748;7.102;2023-03-23T10:17:41;16.60;99.90
32446;DHT22;18899;50.748;7.102;2023-03-23T10:25:58;16.60;99.90
32446;DHT22;18899;50.748;7.102;2023-03-23T10:28:42;16.80;99.90
32446;DHT22;18899;50.748;7.102;2023-03-23T10:31:13;17.20;99.90
32446;DHT22;18899;50.748;7.102;2023-03-23T10:33:46;17.20;99.90
32446;DHT22;18899;50.748;7.102;2023-03-23T10:36:26;16.90;99.90
32446;DHT22;18899;50.748;7.102;2023-03-23T10:38:59;16.70;99.90
32446;DHT22;18899;50.748;7.102;2023-03-23T10:41:26;16.70;99.90
32446;DHT22;18899;50.748;7.102;2023-03-23T10:43:51;16.40;99.90
32446;DHT22;18899;50.748;7.102;2023-03-23T10:46:50;16.30;99.90
32446;DHT22;18899;50.748;7.102;2023-03-23T10:49:33;16.20;99.90
32446;DHT22;18899;50.748;7.102;2023-03-23T10:52:27;16.20;99.90
32446;DHT22;18899;50.748;7.102;2023-03-23T10:57:31;16.30;99.90
32446;DHT22;18899;50.748;7.102;2023-03-23T11:00:04;16.40;99.90
32446;DHT22;18899;50.748;7.102;2023-03-23T11:02:43;16.40;99.90
32446;DHT22;18899;50.748;7.102;2023-03-23T11:05:36;16.60;99.90
32446;DHT22;18899;50.748;7.102;2023-03-23T11:08:03;16.50;99.90
32446;DHT22;18899;50.748;7.102;2023-03-23T11:10:39;16.50;99.90
32446;DHT22;18899;50.748;7.102;2023-03-23T11:13:14;16.40;99.90
32446;DHT22;18899;50.748;7.102;2023-03-23T11:15:42;16.50;99.90
32446;DHT22;18899;50.748;7.102;2023-03-23T11:18:35;16.60;99.90
32446;DHT22;18899;50.748;7.102;2023-03-23T11:21:02;16.90;99.90
32446;DHT22;18899;50.748;7.102;2023-03-23T11:24:13;17.20;99.90
32446;DHT22;18899;50.748;7.102;2023-03-23T11:26:28;17.30;99.90
32446;DHT22;18899;50.748;7.102;2023-03-23T11:29:27;17.40;99.90
32446;DHT22;18899;50.748;7.102;2023-03-23T11:32:04;17.60;99.90
32446;DHT22;18899;50.748;7.102;2023-03-23T11:34:35;17.60;99.90
32446;DHT22;18899;50.748;7.102;2023-03-23T11:37:05;17.40;99.90
32446;DHT22;18899;50.748;7.102;2023-03-23T11:39:46;17.30;99.90
32446;DHT22;18899;50.748;7.102;2023-03-23T11:42:21;17.50;99.90
32446;DHT22;18899;50.748;7.102;2023-03-23T11:44:47;17.70;99.90
32446;DHT22;18899;50.748;7.102;2023-03-23T11:50:16;18.20;99.90
32446;DHT22;18899;50.748;7.102;2023-03-23T11:55:49;18.50;99.90
32446;DHT22;18899;50.748;7.102;2023-03-23T11:58:20;18.40;99.90
32446;DHT22;18899;50.748;7.102;2023-03-23T12:00:56;18.40;99.90
32446;DHT22;18899;50.748;7.102;2023-03-23T12:03:24;18.30;99.90
32446;DHT22;18899;50.748;7.102;2023-03-23T12:06:10;18.00;99.90
32446;DHT22;18899;50.748;7.102;2023-03-23T12:08:59;17.80;99.90
32446;DHT22;18899;50.748;7.102;2023-03-23T12:24:31;18.90;96.30
32446;DHT22;18899;50.748;7.102;2023-03-23T12:29:50;18.30;96.40
32446;DHT22;18899;50.748;7.102;2023-03-23T12:35:09;18.00;98.00
32446;DHT22;18899;50.748;7.102;2023-03-23T12:40:52;18.20;97.40
32446;DHT22;18899;50.748;7.102;2023-03-23T12:43:18;18.10;96.60
32446;DHT22;18899;50.748;7.102;2023-03-23T12:48:32;17.50;98.50
32446;DHT22;18899;50.748;7.102;2023-03-23T12:53:57;17.80;99.00
32446;DHT22;18899;50.748;7.102;2023-03-23T12:56:29;17.70;99.10
32446;DHT22;18899;50.748;7.102;2023-03-23T12:59:12;17.50;99.90
32446;DHT22;18899;50.748;7.102;2023-03-23T13:01:43;17.60;99.70
32446;DHT22;18899;50.748;7.102;2023-03-23T13:04:21;17.60;99.90
32446;DHT22;18899;50.748;7.102;2023-03-23T13:06:47;17.50;99.90
32446;DHT22;18899;50.748;7.102;2023-03-23T13:09:47;17.20;99.90
32446;DHT22;18899;50.748;7.102;2023-03-23T13:12:14;17.00;99.90
32446;DHT22;18899;50.748;7.102;2023-03-23T13:17:46;17.00;99.90
32446;DHT22;18899;50.748;7.102;2023-03-23T13:20:29;17.00;99.90
32446;DHT22;18899;50.748;7.102;2023-03-23T13:23:25;16.90;99.90
32446;DHT22;18899;50.748;7.102;2023-03-23T13:26:14;17.00;99.90
32446;DHT22;18899;50.748;7.102;2023-03-23T13:31:23;17.40;99.90
32446;DHT22;18899;50.748;7.102;2023-03-23T13:34:05;17.70;99.90
32446;DHT22;18899;50.748;7.102;2023-03-23T13:36:43;17.80;99.90
32446;DHT22;18899;50.748;7.102;2023-03-23T13:39:22;17.80;99.40
32446;DHT22;18899;50.748;7.102;2023-03-23T13:44:27;18.30;96.90
32446;DHT22;18899;50.748;7.102;2023-03-23T13:47:03;18.40;96.60
32446;DHT22;18899;50.748;7.102;2023-03-23T13:49:31;18.30;97.10
32446;DHT22;18899;50.748;7.102;2023-03-23T13:52:17;18.30;97.20
32446;DHT22;18899;50.748;7.102;2023-03-23T13:54:46;18.30;96.60
32446;DHT22;18899;50.748;7.102;2023-03-23T13:57:36;18.20;95.70
32446;DHT22;18899;50.748;7.102;2023-03-23T14:02:49;18.20;95.80
32446;DHT22;18899;50.748;7.102;2023-03-23T14:08:00;18.30;96.30
32446;DHT22;18899;50.748;7.102;2023-03-23T14:10:42;18.40;95.60
32446;DHT22;18899;50.748;7.102;2023-03-23T14:13:18;18.40;95.90
32446;DHT22;18899;50.748;7.102;2023-03-23T14:15:59;18.40;95.60
32446;DHT22;18899;50.748;7.102;2023-03-23T14:18:37;18.30;96.90
32446;DHT22;18899;50.748;7.102;2023-03-23T14:21:05;18.30;96.30
32446;DHT22;18899;50.748;7.102;2023-03-23T14:23:32;18.10;96.30
32446;DHT22;18899;50.748;7.102;2023-03-23T14:26:17;18.00;96.40
32446;DHT22;18899;50.748;7.102;2023-03-23T14:28:45;18.00;96.80
32446;DHT22;18899;50.748;7.102;2023-03-23T14:33:41;18.10;96.30
32446;DHT22;18899;50.748;7.102;2023-03-23T14:36:07;18.10;95.80
32446;DHT22;18899;50.748;7.102;2023-03-23T14:38:33;18.00;96.10
32446;DHT22;18899;50.748;7.102;2023-03-23T14:41:04;17.80;97.20
32446;DHT22;18899;50.748;7.102;2023-03-23T14:43:30;17.70;97.60
32446;DHT22;18899;50.748;7.102;2023-03-23T14:45:59;17.60;98.60
32446;DHT22;18899;50.748;7.102;2023-03-23T14:48:26;17.50;98.50
32446;DHT22;18899;50.748;7.102;2023-03-23T14:50:56;17.40;99.80
32446;DHT22;18899;50.748;7.102;2023-03-23T14:56:00;17.10;99.90
32446;DHT22;18899;50.748;7.102;2023-03-23T14:58:28;17.10;99.90
32446;DHT22;18899;50.748;7.102;2023-03-23T15:01:02;17.30;99.90
32446;DHT22;18899;50.748;7.102;2023-03-23T15:03:35;17.30;99.90
32446;DHT22;18899;50.748;7.102;2023-03-23T15:06:05;17.40;99.90
32446;DHT22;18899;50.748;7.102;2023-03-23T15:08:32;17.60;99.90
32446;DHT22;18899;50.748;7.102;2023-03-23T15:11:33;17.70;99.90
32446;DHT22;18899;50.748;7.102;2023-03-23T15:13:53;17.80;99.40
32446;DHT22;18899;50.748;7.102;2023-03-23T15:18:51;17.70;99.90
32446;DHT22;18899;50.748;7.102;2023-03-23T15:21:26;17.70;99.40
32446;DHT22;18899;50.748;7.102;2023-03-23T15:23:52;17.70;99.90
32446;DHT22;18899;50.748;7.102;2023-03-23T15:26:24;17.60;99.60
32446;DHT22;18899;50.748;7.102;2023-03-23T15:28:50;17.60;99.30
32446;DHT22;18899;50.748;7.102;2023-03-23T15:31:15;17.60;99.90
32446;DHT22;18899;50.748;7.102;2023-03-23T15:33:41;17.60;99.20
32446;DHT22;18899;50.748;7.102;2023-03-23T15:36:16;17.80;99.70
32446;DHT22;18899;50.748;7.102;2023-03-23T15:38:47;17.70;99.70
32446;DHT22;18899;50.748;7.102;2023-03-23T15:41:27;17.70;99.80
32446;DHT22;18899;50.748;7.102;2023-03-23T15:43:55;17.60;98.80
32446;DHT22;18899;50.748;7.102;2023-03-23T15:46:25;17.60;98.90
32446;DHT22;18899;50.748;7.102;2023-03-23T15:51:25;17.50;99.60
32446;DHT22;18899;50.748;7.102;2023-03-23T15:53:53;17.50;99.30
32446;DHT22;18899;50.748;7.102;2023-03-23T15:56:19;17.50;98.60
32446;DHT22;18899;50.748;7.102;2023-03-23T15:58:45;17.50;98.70
32446;DHT22;18899;50.748;7.102;2023-03-23T16:01:14;17.40;97.40
32446;DHT22;18899;50.748;7.102;2023-03-23T16:03:54;17.30;97.70
32446;DHT22;18899;50.748;7.102;2023-03-23T16:06:22;17.40;97.60
32446;DHT22;18899;50.748;7.102;2023-03-23T16:08:48;17.50;97.60
32446;DHT22;18899;50.748;7.102;2023-03-23T16:11:15;17.60;97.20
32446;DHT22;18899;50.748;7.102;2023-03-23T16:13:41;17.70;96.60
32446;DHT22;18899;50.748;7.102;2023-03-23T16:16:15;17.70;96.30
32446;DHT22;18899;50.748;7.102;2023-03-23T16:18:41;17.50;95.90
32446;DHT22;18899;50.748;7.102;2023-03-23T16:21:07;17.20;96.60
32446;DHT22;18899;50.748;7.102;2023-03-23T16:23:33;17.10;96.40
32446;DHT22;18899;50.748;7.102;2023-03-23T16:25:58;17.00;96.60
32446;DHT22;18899;50.748;7.102;2023-03-23T16:28:24;17.10;95.40
32446;DHT22;18899;50.748;7.102;2023-03-23T16:30:50;17.00;95.40
32446;DHT22;18899;50.748;7.102;2023-03-23T16:33:15;16.90;96.70
32446;DHT22;18899;50.748;7.102;2023-03-23T16:35:41;16.90;97.00
32446;DHT22;18899;50.748;7.102;2023-03-23T16:38:14;16.70;96.20
32446;DHT22;18899;50.748;7.102;2023-03-23T16:40:41;16.70;97.50
32446;DHT22;18899;50.748;7.102;2023-03-23T16:43:07;16.70;97.50
32446;DHT22;18899;50.748;7.102;2023-03-23T16:45:33;16.80;97.80
32446;DHT22;18899;50.748;7.102;2023-03-23T16:47:59;16.70;98.40
32446;DHT22;18899;50.748;7.102;2023-03-23T16:50:27;16.70;98.10
32446;DHT22;18899;50.748;7.102;2023-03-23T16:52:54;16.80;97.90
32446;DHT22;18899;50.748;7.102;2023-03-23T16:55:20;16.70;97.60
32446;DHT22;18899;50.748;7.102;2023-03-23T16:57:45;16.50;97.70
32446;DHT22;18899;50.748;7.102;2023-03-23T17:00:13;16.50;98.50
32446;DHT22;18899;50.748;7.102;2023-03-23T17:02:41;16.40;98.00
32446;DHT22;18899;50.748;7.102;2023-03-23T17:05:08;16.20;98.10
32446;DHT22;18899;50.748;7.102;2023-03-23T17:07:35;16.10;98.60
32446;DHT22;18899;50.748;7.102;2023-03-23T17:10:01;15.90;99.70
32446;DHT22;18899;50.748;7.102;2023-03-23T17:12:26;15.90;99.90
32446;DHT22;18899;50.748;7.102;2023-03-23T17:14:52;15.80;99.90
32446;DHT22;18899;50.748;7.102;2023-03-23T17:17:17;15.70;99.90